Archival Weather

NSFA McMurdo Sound

NSFA McMurdo Sound, Antarctica (NZCM)

Report from: Saturday, April 1, 2023 12:55 AM UTC
Current time: Monday, July 22, 2024 10:27 AM UTC

Current weather – Weather history – Daily summaries
Weather forecast

Temperature-18.2°C (-0.8°F)
Wind chill-23.8°C (-10.8°F)
Dew point-24.4°C (-11.9°F)
Winds 4 kts (2.1 m/s, 4.6 mph) East-Northeast (60°)
Visibility6.2 mi. (10 km)
Clouds Sky clear
Altimeter29.89 in.Hg (1012 mB)
Relative humidity58 %
Density altitude-4,202 ft. (-1,281 m)
Sea-level pressure101.3 kPa (1013 mB, 29.91 in.Hg)
Remarks Fully automated report
Automated weather observing station with precipitation discriminator
Flight conditions Visual Meteorological Conditions
Raw dataNZCM 010055Z AUTO 06004KT 9999 CLR M18/M24 A2989 RMK AO2 SLP129 T11821244
An error has occurred. This application may no longer respond until reloaded. Reload 🗙